Castelo do Piaui, Brazil
Current Conditions -  °F | °C
As of 11:00 AM on Friday 24 Oct 2014 (Local Time) from SBTE Reporting Station
Scattered Clouds Scattered Clouds  
Wind Chill: 93°   Ceiling: Unl
Heat Index: 96°   Visibility: 6mi
Dew Point: 66°   Wind: 8mph
Humidity: 41%   Direction: 140°SE
Pressure: 29.85"   Gusts: NA
Location:  5.32°S, 41.55°W
Report Text: SBTE 241400Z 14007KT 9999 SCT030 34/19 Q1011
Loading
Personal Weather Stations






























Interactive Weather Map
Tropical Storm Tracking
New forecast layout! Learn more

10-Day Weather Forecast

Advertisements
Track Severe Weather on mobile